Time;durP1;ratioP1;P1;durP2;ratioP2;P2;SDS_P1;SDS_P2;PMS_P1;PMS_P2;Temp;Humidity;BMP_temperature;BMP_pressure;BME280_temperature;BME280_humidity;BME280_pressure;Samples;Min_cycle;Max_cycle;Signal;HPM_P1;HPM_P2
2023/08/11 00:00:51;;;;;;;4.77;4.17;;;;;;;;;;5127593;27;20484;-73
2023/08/11 00:03:18;;;;;;;6.70;4.07;;;;;;;;;;5133089;27;20857;-71
2023/08/11 00:05:44;;;;;;;5.37;4.17;;;;;;;;;;5133497;27;20468;-71
2023/08/11 00:08:13;;;;;;;7.20;4.77;;;;;;;;;;5136951;27;20476;-71
2023/08/11 00:10:40;;;;;;;5.60;4.27;;;;;;;;;;5123856;27;20478;-72
2023/08/11 00:13:12;;;;;;;4.60;3.87;;;;;;;;;;5135703;27;20481;-72
2023/08/11 00:15:39;;;;;;;6.73;4.90;;;;;;;;;;5136857;27;20559;-72
2023/08/11 00:18:06;;;;;;;6.97;4.60;;;;;;;;;;5136846;27;20469;-70
2023/08/11 00:20:32;;;;;;;5.90;4.53;;;;;;;;;;5140607;27;20515;-70
2023/08/11 00:22:59;;;;;;;8.00;4.37;;;;;;;;;;5134756;27;20445;-72
2023/08/11 00:25:25;;;;;;;8.10;4.57;;;;;;;;;;5138563;27;20493;-72
2023/08/11 00:27:51;;;;;;;5.83;4.27;;;;;;;;;;5138752;27;20452;-74
2023/08/11 00:30:19;;;;;;;6.43;5.00;;;;;;;;;;5134645;27;20510;-71
2023/08/11 00:32:46;;;;;;;7.80;4.30;;;;;;;;;;5121519;27;20502;-74
2023/08/11 00:35:13;;;;;;;6.53;4.63;;;;;;;;;;5135534;27;20449;-74
2023/08/11 00:37:39;;;;;;;9.53;5.30;;;;;;;;;;5134516;27;20806;-75
2023/08/11 00:40:07;;;;;;;6.60;5.20;;;;;;;;;;5142101;27;20496;-74
2023/08/11 00:42:35;;;;;;;9.10;5.97;;;;;;;;;;5136071;27;20490;-73
2023/08/11 00:45:01;;;;;;;6.90;5.17;;;;;;;;;;5143335;27;20456;-74
2023/08/11 00:47:29;;;;;;;11.10;5.13;;;;;;;;;;5127058;27;20450;-74
2023/08/11 00:49:55;;;;;;;9.50;5.40;;;;;;;;;;5131501;27;20487;-74
2023/08/11 00:52:22;;;;;;;8.63;5.30;;;;;;;;;;5128590;27;20827;-74
2023/08/11 00:54:49;;;;;;;5.50;4.70;;;;;;;;;;5143148;27;20472;-74
2023/08/11 00:57:15;;;;;;;8.80;4.70;;;;;;;;;;5137375;27;20700;-73
2023/08/11 00:59:42;;;;;;;5.50;4.83;;;;;;;;;;5133805;27;20465;-71
2023/08/11 01:02:10;;;;;;;5.80;4.87;;;;;;;;;;5138812;27;20474;-72
2023/08/11 01:04:38;;;;;;;7.37;5.07;;;;;;;;;;5137981;27;20490;-69
2023/08/11 01:07:08;;;;;;;5.37;4.87;;;;;;;;;;5144472;27;20477;-67
2023/08/11 01:09:39;;;;;;;8.97;5.43;;;;;;;;;;5133782;27;20994;-73
2023/08/11 01:12:08;;;;;;;6.80;5.03;;;;;;;;;;5136399;27;20465;-71
2023/08/11 01:14:37;;;;;;;9.90;5.50;;;;;;;;;;5133105;27;20488;-73
2023/08/11 01:17:05;;;;;;;7.20;5.40;;;;;;;;;;5134591;27;20533;-69
2023/08/11 01:19:33;;;;;;;6.07;5.53;;;;;;;;;;5137593;27;20554;-72
2023/08/11 01:22:02;;;;;;;9.17;5.93;;;;;;;;;;5143493;27;20475;-72
2023/08/11 01:24:30;;;;;;;6.33;5.70;;;;;;;;;;5130369;27;20445;-71
2023/08/11 01:26:57;;;;;;;7.10;6.00;;;;;;;;;;5131810;27;20498;-71
2023/08/11 01:29:23;;;;;;;8.20;6.17;;;;;;;;;;5130829;27;20450;-72
2023/08/11 01:31:50;;;;;;;6.83;6.00;;;;;;;;;;5134396;27;20445;-73
2023/08/11 01:34:16;;;;;;;8.07;5.87;;;;;;;;;;5139104;27;20521;-73
2023/08/11 01:36:43;;;;;;;5.67;4.87;;;;;;;;;;5132714;27;20497;-74
2023/08/11 01:39:10;;;;;;;9.23;6.20;;;;;;;;;;5150197;27;20484;-73
2023/08/11 01:41:38;;;;;;;6.00;5.40;;;;;;;;;;5131276;27;20481;-71
2023/08/11 01:44:05;;;;;;;9.87;6.13;;;;;;;;;;5130240;27;20572;-72
2023/08/11 01:46:32;;;;;;;6.60;5.90;;;;;;;;;;5130305;27;20451;-72
2023/08/11 01:48:59;;;;;;;7.50;5.80;;;;;;;;;;5135945;27;20561;-70
2023/08/11 01:51:25;;;;;;;7.33;5.63;;;;;;;;;;5122808;27;20480;-71
2023/08/11 01:53:52;;;;;;;7.00;5.90;;;;;;;;;;5140204;27;20449;-71
2023/08/11 01:56:20;;;;;;;9.10;6.33;;;;;;;;;;5130932;27;20482;-72
2023/08/11 01:58:48;;;;;;;10.60;6.97;;;;;;;;;;5136140;27;20449;-71
2023/08/11 02:01:14;;;;;;;6.27;5.57;;;;;;;;;;5138229;27;20489;-71
2023/08/11 02:03:41;;;;;;;8.10;5.83;;;;;;;;;;5140455;27;20473;-69
2023/08/11 02:06:07;;;;;;;7.90;5.57;;;;;;;;;;5130093;27;20475;-73
2023/08/11 02:08:33;;;;;;;7.87;5.73;;;;;;;;;;5136320;27;20541;-72
2023/08/11 02:11:00;;;;;;;8.80;4.90;;;;;;;;;;5141643;27;20473;-71
2023/08/11 02:13:26;;;;;;;7.33;5.03;;;;;;;;;;5131372;27;20477;-73
2023/08/11 02:15:54;;;;;;;8.23;5.20;;;;;;;;;;5130639;27;20444;-69
2023/08/11 02:18:20;;;;;;;8.30;6.27;;;;;;;;;;5132113;27;20994;-73
2023/08/11 02:20:47;;;;;;;10.00;6.00;;;;;;;;;;5133893;27;20473;-72
2023/08/11 02:23:13;;;;;;;10.60;6.67;;;;;;;;;;5130121;27;20473;-70
2023/08/11 02:25:40;;;;;;;8.60;7.40;;;;;;;;;;5127400;27;20450;-72
2023/08/11 02:28:07;;;;;;;12.57;6.60;;;;;;;;;;5134025;27;20576;-72
2023/08/11 02:30:33;;;;;;;10.03;6.43;;;;;;;;;;5133527;27;20890;-72
2023/08/11 02:33:01;;;;;;;6.60;5.40;;;;;;;;;;5132479;27;20446;-70
2023/08/11 02:35:27;;;;;;;7.40;6.50;;;;;;;;;;5137335;27;20524;-70
2023/08/11 02:37:54;;;;;;;7.83;6.20;;;;;;;;;;5135082;27;20476;-73
2023/08/11 02:40:20;;;;;;;12.00;6.63;;;;;;;;;;5132165;27;20492;-73
2023/08/11 02:42:50;;;;;;;8.00;5.47;;;;;;;;;;5121452;27;20488;-72
2023/08/11 02:45:17;;;;;;;7.73;5.73;;;;;;;;;;5139304;27;20484;-72
2023/08/11 02:47:43;;;;;;;6.97;5.40;;;;;;;;;;5138023;27;20514;-72
2023/08/11 02:50:13;;;;;;;8.03;5.73;;;;;;;;;;5127148;27;20477;-72
2023/08/11 02:52:39;;;;;;;9.07;6.17;;;;;;;;;;5120374;27;20499;-71
2023/08/11 02:55:06;;;;;;;6.40;5.80;;;;;;;;;;5139826;27;20563;-70
2023/08/11 02:57:33;;;;;;;7.40;5.93;;;;;;;;;;5131819;27;20478;-72
2023/08/11 02:59:59;;;;;;;8.30;5.97;;;;;;;;;;5138304;27;20953;-71
2023/08/11 03:02:26;;;;;;;7.43;5.60;;;;;;;;;;5125071;28;20470;-71
2023/08/11 03:04:52;;;;;;;7.23;5.80;;;;;;;;;;5129114;28;20458;-72
2023/08/11 03:07:20;;;;;;;7.70;5.50;;;;;;;;;;5137917;28;20454;-72
2023/08/11 03:09:46;;;;;;;7.60;5.73;;;;;;;;;;5142446;27;20528;-73
2023/08/11 03:12:13;;;;;;;6.43;5.50;;;;;;;;;;5135180;28;20449;-71
2023/08/11 03:14:41;;;;;;;6.33;5.67;;;;;;;;;;5133068;28;20474;-71
2023/08/11 03:17:10;;;;;;;6.40;5.77;;;;;;;;;;5135277;27;20494;-72
2023/08/11 03:19:36;;;;;;;6.13;5.53;;;;;;;;;;5136392;28;20509;-72
2023/08/11 03:22:03;;;;;;;6.93;5.73;;;;;;;;;;5140702;27;20500;-70
2023/08/11 03:24:30;;;;;;;6.13;5.30;;;;;;;;;;5125188;27;20538;-72
2023/08/11 03:26:57;;;;;;;7.40;4.73;;;;;;;;;;5144259;27;20529;-72
2023/08/11 03:29:23;;;;;;;6.43;5.50;;;;;;;;;;5142668;27;20456;-73
2023/08/11 03:31:49;;;;;;;5.90;5.40;;;;;;;;;;5150793;27;20528;-72
2023/08/11 03:34:16;;;;;;;5.93;4.43;;;;;;;;;;5141509;27;20477;-71
2023/08/11 03:36:43;;;;;;;6.47;5.80;;;;;;;;;;5139517;27;20444;-73
2023/08/11 03:39:09;;;;;;;7.50;6.67;;;;;;;;;;5131717;27;20456;-73
2023/08/11 03:41:37;;;;;;;8.93;5.53;;;;;;;;;;5124292;27;20529;-73
2023/08/11 03:44:03;;;;;;;8.23;6.43;;;;;;;;;;5140392;27;20452;-72
2023/08/11 03:46:30;;;;;;;6.50;5.80;;;;;;;;;;5133604;27;20993;-73
2023/08/11 03:48:57;;;;;;;6.30;5.70;;;;;;;;;;5127930;27;20501;-72
2023/08/11 03:51:23;;;;;;;6.93;5.77;;;;;;;;;;5146929;27;20541;-67
2023/08/11 03:53:49;;;;;;;8.70;6.37;;;;;;;;;;5134310;27;20491;-70
2023/08/11 03:56:16;;;;;;;8.20;5.80;;;;;;;;;;5149986;27;20474;-71
2023/08/11 03:58:44;;;;;;;6.97;6.33;;;;;;;;;;5136395;27;20557;-72
2023/08/11 04:01:12;;;;;;;6.17;5.53;;;;;;;;;;5129980;27;20512;-70
2023/08/11 04:03:38;;;;;;;7.10;5.57;;;;;;;;;;5152073;27;20586;-68
2023/08/11 04:06:05;;;;;;;6.30;5.70;;;;;;;;;;5122105;27;20549;-72
2023/08/11 04:08:31;;;;;;;9.10;6.60;;;;;;;;;;5137997;27;20449;-73
2023/08/11 04:10:58;;;;;;;9.67;7.80;;;;;;;;;;5141714;27;20451;-72
2023/08/11 04:13:24;;;;;;;9.43;6.40;;;;;;;;;;5145347;27;20457;-72
2023/08/11 04:15:52;;;;;;;9.03;5.80;;;;;;;;;;5131961;27;20480;-71
2023/08/11 04:18:18;;;;;;;7.90;6.30;;;;;;;;;;5133699;27;20445;-72
2023/08/11 04:20:46;;;;;;;5.77;5.20;;;;;;;;;;5137803;27;21106;-73
2023/08/11 04:23:13;;;;;;;7.73;5.90;;;;;;;;;;5136857;27;20509;-70
2023/08/11 04:25:39;;;;;;;9.73;6.50;;;;;;;;;;5137990;27;20449;-73
2023/08/11 04:28:06;;;;;;;7.80;5.20;;;;;;;;;;5139368;27;20485;-73
2023/08/11 04:30:33;;;;;;;12.50;5.70;;;;;;;;;;5122602;27;20485;-72
2023/08/11 04:33:01;;;;;;;6.80;5.03;;;;;;;;;;5122785;27;20995;-68
2023/08/11 04:35:27;;;;;;;6.30;5.63;;;;;;;;;;5133654;27;20520;-65
2023/08/11 04:37:54;;;;;;;6.27;5.10;;;;;;;;;;5131642;27;20514;-66
2023/08/11 04:40:20;;;;;;;5.67;5.13;;;;;;;;;;5135979;27;20491;-66
2023/08/11 04:42:47;;;;;;;6.57;4.60;;;;;;;;;;5128957;27;20556;-64
2023/08/11 04:45:14;;;;;;;7.20;5.13;;;;;;;;;;5133744;27;20452;-66
2023/08/11 04:47:41;;;;;;;8.50;4.27;;;;;;;;;;5135695;27;20462;-67
2023/08/11 04:50:09;;;;;;;6.67;4.63;;;;;;;;;;5139672;27;20543;-66
2023/08/11 04:52:35;;;;;;;7.37;4.77;;;;;;;;;;5123168;27;20510;-67
2023/08/11 04:55:03;;;;;;;5.93;4.60;;;;;;;;;;5139727;27;20477;-64
2023/08/11 04:57:29;;;;;;;10.70;4.93;;;;;;;;;;5134045;27;20904;-66
2023/08/11 04:59:55;;;;;;;6.93;5.30;;;;;;;;;;5132024;27;20450;-67
2023/08/11 05:02:22;;;;;;;6.10;5.50;;;;;;;;;;5137277;27;21091;-67
2023/08/11 05:04:48;;;;;;;10.97;6.10;;;;;;;;;;5128566;27;20524;-66
2023/08/11 05:07:17;;;;;;;6.80;5.60;;;;;;;;;;5132771;27;20548;-66
2023/08/11 05:09:44;;;;;;;7.00;6.40;;;;;;;;;;5132516;27;20463;-66
2023/08/11 05:12:11;;;;;;;6.57;6.07;;;;;;;;;;5138055;27;20454;-67
2023/08/11 05:14:37;;;;;;;6.90;6.20;;;;;;;;;;5138687;27;20449;-66
2023/08/11 05:17:04;;;;;;;6.90;6.20;;;;;;;;;;5123916;27;20566;-66
2023/08/11 05:19:31;;;;;;;5.50;5.00;;;;;;;;;;5125772;27;20496;-66
2023/08/11 05:21:57;;;;;;;5.73;5.17;;;;;;;;;;5131107;27;20453;-67
2023/08/11 05:24:25;;;;;;;5.77;4.57;;;;;;;;;;5142495;27;20483;-68
2023/08/11 05:26:51;;;;;;;6.63;4.90;;;;;;;;;;5136806;27;21020;-67
2023/08/11 05:29:18;;;;;;;7.20;5.00;;;;;;;;;;5128338;27;20514;-68
2023/08/11 05:31:44;;;;;;;5.60;4.50;;;;;;;;;;5137070;27;20488;-67
2023/08/11 05:34:11;;;;;;;6.00;5.40;;;;;;;;;;5129527;27;20585;-68
2023/08/11 05:36:37;;;;;;;5.40;4.80;;;;;;;;;;5133907;27;20479;-68
2023/08/11 05:39:04;;;;;;;8.53;4.80;;;;;;;;;;5135116;27;20449;-68
2023/08/11 05:41:32;;;;;;;5.10;4.37;;;;;;;;;;5120425;27;20488;-68
2023/08/11 05:43:58;;;;;;;6.73;4.77;;;;;;;;;;5126960;27;20543;-68
2023/08/11 05:46:24;;;;;;;5.03;4.40;;;;;;;;;;5133152;27;20876;-69
2023/08/11 05:48:51;;;;;;;7.57;4.17;;;;;;;;;;5120716;27;20549;-68
2023/08/11 05:51:17;;;;;;;8.13;4.20;;;;;;;;;;5135778;27;20980;-68
2023/08/11 05:53:44;;;;;;;6.33;4.40;;;;;;;;;;5140497;27;20464;-68
2023/08/11 05:56:10;;;;;;;5.70;4.73;;;;;;;;;;5140585;27;20819;-68
2023/08/11 05:58:38;;;;;;;5.23;4.67;;;;;;;;;;5133424;27;20517;-68
2023/08/11 06:01:04;;;;;;;7.37;5.00;;;;;;;;;;5132406;27;20474;-68
2023/08/11 06:03:30;;;;;;;4.40;3.87;;;;;;;;;;5132665;27;20542;-68
2023/08/11 06:05:59;;;;;;;7.00;4.50;;;;;;;;;;5136948;27;21374;-68
2023/08/11 06:08:25;;;;;;;5.77;5.17;;;;;;;;;;5127858;27;20587;-68
2023/08/11 06:10:52;;;;;;;4.43;4.03;;;;;;;;;;5133928;27;20468;-67
2023/08/11 06:13:18;;;;;;;6.20;4.30;;;;;;;;;;5127326;27;20454;-69
2023/08/11 06:15:46;;;;;;;5.30;4.10;;;;;;;;;;5119867;27;20482;-68
2023/08/11 06:18:12;;;;;;;6.17;4.30;;;;;;;;;;5123059;27;20505;-68
2023/08/11 06:20:39;;;;;;;5.57;4.00;;;;;;;;;;5130937;27;20498;-68
2023/08/11 06:23:05;;;;;;;4.33;4.03;;;;;;;;;;5124106;27;20510;-69
2023/08/11 06:25:32;;;;;;;7.07;4.40;;;;;;;;;;5130149;27;20466;-68
2023/08/11 06:27:58;;;;;;;5.40;4.50;;;;;;;;;;5130473;27;20692;-67
2023/08/11 06:30:27;;;;;;;5.00;4.50;;;;;;;;;;5125189;27;20482;-68
2023/08/11 06:32:55;;;;;;;5.90;4.13;;;;;;;;;;5135010;27;20449;-68
2023/08/11 06:35:22;;;;;;;5.57;4.03;;;;;;;;;;5129828;27;20465;-67
2023/08/11 06:37:49;;;;;;;6.27;4.00;;;;;;;;;;5127880;27;20809;-68
2023/08/11 06:40:15;;;;;;;4.77;4.17;;;;;;;;;;5129779;27;20465;-69
2023/08/11 06:42:42;;;;;;;4.53;4.13;;;;;;;;;;5125027;27;20485;-68
2023/08/11 06:45:08;;;;;;;7.30;4.40;;;;;;;;;;5133812;27;20480;-70
2023/08/11 06:47:35;;;;;;;6.57;4.00;;;;;;;;;;5115045;27;20475;-67
2023/08/11 06:50:03;;;;;;;4.80;3.73;;;;;;;;;;5131987;27;20484;-66
2023/08/11 06:52:29;;;;;;;4.50;3.53;;;;;;;;;;5128478;27;20457;-69
2023/08/11 06:54:55;;;;;;;5.30;4.40;;;;;;;;;;5124284;27;21010;-67
2023/08/11 06:57:22;;;;;;;6.00;4.30;;;;;;;;;;5123159;27;20481;-68
2023/08/11 06:59:48;;;;;;;5.23;3.67;;;;;;;;;;5132883;27;20449;-69
2023/08/11 07:02:15;;;;;;;4.13;3.57;;;;;;;;;;5122434;27;20492;-68
2023/08/11 07:04:41;;;;;;;7.93;3.90;;;;;;;;;;5134715;27;20532;-68
2023/08/11 07:07:09;;;;;;;5.67;4.37;;;;;;;;;;5133848;27;20470;-69
2023/08/11 07:09:35;;;;;;;4.70;3.90;;;;;;;;;;5127492;27;20449;-69
2023/08/11 07:12:02;;;;;;;6.13;4.07;;;;;;;;;;5118628;28;20494;-70
2023/08/11 07:14:28;;;;;;;6.20;4.00;;;;;;;;;;5128586;28;20544;-69
2023/08/11 07:16:55;;;;;;;4.60;3.57;;;;;;;;;;5131595;28;20454;-69
2023/08/11 07:19:21;;;;;;;4.90;3.30;;;;;;;;;;5130087;28;20441;-69
2023/08/11 07:21:48;;;;;;;7.13;3.70;;;;;;;;;;5131764;27;20673;-69
2023/08/11 07:24:15;;;;;;;4.10;3.50;;;;;;;;;;5127063;28;20533;-68
2023/08/11 07:26:42;;;;;;;4.83;3.20;;;;;;;;;;5122501;28;20444;-68
2023/08/11 07:29:08;;;;;;;4.40;3.90;;;;;;;;;;5120637;28;20466;-69
2023/08/11 07:31:35;;;;;;;6.60;3.23;;;;;;;;;;5136716;27;20473;-69
2023/08/11 07:34:01;;;;;;;4.30;3.50;;;;;;;;;;5135502;27;20540;-69
2023/08/11 07:36:27;;;;;;;5.33;3.33;;;;;;;;;;5135308;28;20461;-69
2023/08/11 07:38:54;;;;;;;4.03;3.23;;;;;;;;;;5143571;27;21157;-68
2023/08/11 07:41:22;;;;;;;4.57;3.00;;;;;;;;;;5129918;27;20496;-68
2023/08/11 07:43:48;;;;;;;5.77;3.40;;;;;;;;;;5134313;27;20995;-69
2023/08/11 07:46:14;;;;;;;5.00;2.70;;;;;;;;;;5136257;27;20445;-68
2023/08/11 07:48:41;;;;;;;5.40;3.40;;;;;;;;;;5124763;27;20454;-68
2023/08/11 07:51:07;;;;;;;4.63;3.10;;;;;;;;;;5129457;27;20518;-68
2023/08/11 07:53:36;;;;;;;6.80;2.80;;;;;;;;;;5128384;28;20434;-69
2023/08/11 07:56:04;;;;;;;7.53;2.97;;;;;;;;;;5134810;27;20456;-68
2023/08/11 07:58:32;;;;;;;5.90;2.87;;;;;;;;;;5124633;28;20522;-67
2023/08/11 08:00:59;;;;;;;5.73;2.80;;;;;;;;;;5121044;28;20477;-67
2023/08/11 08:03:25;;;;;;;4.50;2.33;;;;;;;;;;5136872;27;20498;-68
2023/08/11 08:05:51;;;;;;;4.33;2.43;;;;;;;;;;5131611;27;20477;-68
2023/08/11 08:08:18;;;;;;;3.23;2.40;;;;;;;;;;5133943;28;20481;-68
2023/08/11 08:10:44;;;;;;;2.93;2.40;;;;;;;;;;5129958;27;20480;-68
2023/08/11 08:13:11;;;;;;;4.20;2.30;;;;;;;;;;5137882;27;20933;-68
2023/08/11 08:15:38;;;;;;;3.00;2.17;;;;;;;;;;5122342;27;20465;-68
2023/08/11 08:18:05;;;;;;;3.70;2.30;;;;;;;;;;5131652;27;20511;-68
2023/08/11 08:20:32;;;;;;;2.80;2.10;;;;;;;;;;5130875;27;20949;-68
2023/08/11 08:22:58;;;;;;;5.53;2.60;;;;;;;;;;5142456;27;20459;-68
2023/08/11 08:25:25;;;;;;;4.47;2.20;;;;;;;;;;5139413;27;20488;-67
2023/08/11 08:27:51;;;;;;;3.33;1.87;;;;;;;;;;5135774;27;20497;-67
2023/08/11 08:30:19;;;;;;;4.90;2.60;;;;;;;;;;5133542;27;20473;-68
2023/08/11 08:32:47;;;;;;;4.70;2.00;;;;;;;;;;5141815;27;20530;-68
2023/08/11 08:35:14;;;;;;;3.17;1.67;;;;;;;;;;5145814;27;20970;-69
2023/08/11 08:37:40;;;;;;;5.20;1.90;;;;;;;;;;5130360;27;20449;-68
2023/08/11 08:40:08;;;;;;;3.10;2.20;;;;;;;;;;5126718;27;20469;-68
2023/08/11 08:42:35;;;;;;;8.87;2.23;;;;;;;;;;5128424;27;20461;-68
2023/08/11 08:45:02;;;;;;;5.87;2.07;;;;;;;;;;5142748;27;20490;-68
2023/08/11 08:47:29;;;;;;;4.07;1.90;;;;;;;;;;5134833;27;20520;-69
2023/08/11 08:49:59;;;;;;;2.33;1.83;;;;;;;;;;5140193;27;20503;-68
2023/08/11 08:52:25;;;;;;;2.60;1.83;;;;;;;;;;5135158;27;20468;-69
2023/08/11 08:54:52;;;;;;;2.13;1.90;;;;;;;;;;5128702;27;20496;-69
2023/08/11 08:57:20;;;;;;;2.10;1.83;;;;;;;;;;5133720;27;20455;-68
2023/08/11 08:59:46;;;;;;;3.27;1.77;;;;;;;;;;5132834;27;20445;-69
2023/08/11 09:02:14;;;;;;;3.77;2.00;;;;;;;;;;5133849;27;21037;-68
2023/08/11 09:04:40;;;;;;;3.03;2.10;;;;;;;;;;5138235;27;20526;-69
2023/08/11 09:07:08;;;;;;;2.37;1.83;;;;;;;;;;5136940;27;20441;-69
2023/08/11 09:09:35;;;;;;;3.80;2.17;;;;;;;;;;5125199;27;20462;-68
2023/08/11 09:12:01;;;;;;;5.00;2.10;;;;;;;;;;5130010;27;20446;-67
2023/08/11 09:14:28;;;;;;;3.30;2.17;;;;;;;;;;5126074;27;20528;-68
2023/08/11 09:16:55;;;;;;;2.80;2.20;;;;;;;;;;5139937;27;20461;-68
2023/08/11 09:19:23;;;;;;;4.53;2.50;;;;;;;;;;5134948;27;20940;-69
2023/08/11 09:21:49;;;;;;;4.10;2.40;;;;;;;;;;5131584;27;20461;-69
2023/08/11 09:24:17;;;;;;;2.10;1.90;;;;;;;;;;5128671;27;20548;-69
2023/08/11 09:26:44;;;;;;;2.80;2.40;;;;;;;;;;5132486;27;20461;-70
2023/08/11 09:29:10;;;;;;;5.33;2.70;;;;;;;;;;5124920;27;20447;-69
2023/08/11 09:31:37;;;;;;;2.80;2.10;;;;;;;;;;5128527;27;20518;-68
2023/08/11 09:34:11;;;;;;;3.90;2.60;;;;;;;;;;5140761;27;20484;-67
2023/08/11 09:36:37;;;;;;;2.67;1.93;;;;;;;;;;5140968;27;20448;-69
2023/08/11 09:39:06;;;;;;;3.53;2.60;;;;;;;;;;5127942;27;20526;-68
2023/08/11 09:41:37;;;;;;;2.67;2.20;;;;;;;;;;5131511;27;20481;-69
2023/08/11 09:44:04;;;;;;;4.03;2.20;;;;;;;;;;5134421;27;21076;-69
2023/08/11 09:46:31;;;;;;;6.10;3.00;;;;;;;;;;5127639;27;20969;-69
2023/08/11 09:48:57;;;;;;;3.77;3.00;;;;;;;;;;5116552;27;20508;-69
2023/08/11 09:51:24;;;;;;;6.83;3.27;;;;;;;;;;5136102;27;20773;-69
2023/08/11 09:53:52;;;;;;;3.87;3.07;;;;;;;;;;5120505;28;21010;-69
2023/08/11 09:56:19;;;;;;;3.50;3.10;;;;;;;;;;5133944;27;20681;-69
2023/08/11 09:58:48;;;;;;;6.00;3.10;;;;;;;;;;5137307;27;20476;-69
2023/08/11 10:01:16;;;;;;;5.67;3.30;;;;;;;;;;5135138;27;20449;-69
2023/08/11 10:03:43;;;;;;;3.60;2.90;;;;;;;;;;5130535;27;20450;-69
2023/08/11 10:06:11;;;;;;;3.37;2.63;;;;;;;;;;5126070;27;20518;-69
2023/08/11 10:08:37;;;;;;;5.50;2.80;;;;;;;;;;5135047;27;20505;-67
2023/08/11 10:11:05;;;;;;;2.63;2.43;;;;;;;;;;5130825;27;20486;-69
2023/08/11 10:13:32;;;;;;;3.67;2.40;;;;;;;;;;5131001;27;20449;-69
2023/08/11 10:16:00;;;;;;;3.07;2.60;;;;;;;;;;5135980;27;20545;-69
2023/08/11 10:18:26;;;;;;;3.67;2.73;;;;;;;;;;5135470;27;20525;-69
2023/08/11 10:20:53;;;;;;;5.50;3.37;;;;;;;;;;5128884;27;20549;-68
2023/08/11 10:23:19;;;;;;;3.43;2.87;;;;;;;;;;5135765;27;20445;-68
2023/08/11 10:25:46;;;;;;;4.10;2.90;;;;;;;;;;5129406;27;20607;-69
2023/08/11 10:28:13;;;;;;;3.77;2.63;;;;;;;;;;5129699;27;20495;-69
2023/08/11 10:30:40;;;;;;;5.03;2.70;;;;;;;;;;5124700;27;20485;-69
2023/08/11 10:33:08;;;;;;;3.50;2.40;;;;;;;;;;5136059;27;20452;-69
2023/08/11 10:35:36;;;;;;;5.03;2.60;;;;;;;;;;5127162;27;20446;-69
2023/08/11 10:38:04;;;;;;;3.83;2.77;;;;;;;;;;5140479;27;20793;-69
2023/08/11 10:40:38;;;;;;;4.00;2.70;;;;;;;;;;5135841;27;20540;-68
2023/08/11 10:43:05;;;;;;;3.60;2.43;;;;;;;;;;5127252;27;21033;-68
2023/08/11 10:45:32;;;;;;;5.37;2.83;;;;;;;;;;5132183;27;20485;-68
2023/08/11 10:47:59;;;;;;;5.33;2.70;;;;;;;;;;5132373;27;20451;-68
2023/08/11 10:50:27;;;;;;;5.43;2.90;;;;;;;;;;5132386;27;20478;-68
2023/08/11 10:53:05;;;;;;;3.77;2.47;;;;;;;;;;5127089;27;20453;-68
2023/08/11 10:55:33;;;;;;;2.47;2.20;;;;;;;;;;5133419;27;20493;-68
2023/08/11 10:58:13;;;;;;;2.73;2.20;;;;;;;;;;5126864;27;20542;-68
2023/08/11 11:00:40;;;;;;;5.20;2.83;;;;;;;;;;5130232;27;20465;-68
2023/08/11 11:03:07;;;;;;;3.67;2.50;;;;;;;;;;5126764;27;20474;-68
2023/08/11 11:05:35;;;;;;;3.13;2.63;;;;;;;;;;5128555;27;20503;-68
2023/08/11 11:08:01;;;;;;;4.40;3.00;;;;;;;;;;5123279;28;20518;-68
2023/08/11 11:10:29;;;;;;;3.23;2.43;;;;;;;;;;5127916;27;20550;-68
2023/08/11 11:12:55;;;;;;;2.80;2.17;;;;;;;;;;5127040;27;20474;-69
2023/08/11 11:15:22;;;;;;;2.93;2.43;;;;;;;;;;5131976;28;20480;-68
2023/08/11 11:17:48;;;;;;;4.20;2.37;;;;;;;;;;5134203;28;20445;-68
2023/08/11 11:20:15;;;;;;;4.83;2.83;;;;;;;;;;5121620;27;20507;-68
2023/08/11 11:22:48;;;;;;;5.17;2.30;;;;;;;;;;5135114;27;20953;-68
2023/08/11 11:25:16;;;;;;;5.53;2.60;;;;;;;;;;5130282;27;20490;-68
2023/08/11 11:27:43;;;;;;;4.20;2.40;;;;;;;;;;5122781;28;20473;-68
2023/08/11 11:30:10;;;;;;;3.23;2.50;;;;;;;;;;5126876;28;20445;-67
2023/08/11 11:32:36;;;;;;;3.00;2.23;;;;;;;;;;5118456;28;20446;-68
2023/08/11 11:35:04;;;;;;;4.30;2.47;;;;;;;;;;5143355;27;20445;-68
2023/08/11 11:37:31;;;;;;;5.37;2.80;;;;;;;;;;5132194;27;20457;-68
2023/08/11 11:39:59;;;;;;;2.63;2.30;;;;;;;;;;5126894;28;20460;-68
2023/08/11 11:42:28;;;;;;;4.30;2.70;;;;;;;;;;5131607;27;20463;-67
2023/08/11 11:44:55;;;;;;;5.10;2.70;;;;;;;;;;5136734;27;20591;-68
2023/08/11 11:47:21;;;;;;;3.30;2.80;;;;;;;;;;5128255;27;20458;-68
2023/08/11 11:49:54;;;;;;;2.47;2.27;;;;;;;;;;5125940;27;20504;-66
2023/08/11 11:52:20;;;;;;;2.77;2.57;;;;;;;;;;5137058;27;20516;-67
2023/08/11 11:54:50;;;;;;;3.60;2.40;;;;;;;;;;5131158;27;20468;-68
2023/08/11 11:57:18;;;;;;;4.53;2.50;;;;;;;;;;5140240;27;20541;-67
2023/08/11 11:59:46;;;;;;;6.70;2.90;;;;;;;;;;5136964;27;20485;-67
2023/08/11 12:02:12;;;;;;;3.33;2.90;;;;;;;;;;5125984;27;20499;-67
2023/08/11 12:04:40;;;;;;;6.07;3.23;;;;;;;;;;5124148;27;20470;-68
2023/08/11 12:07:07;;;;;;;4.47;3.03;;;;;;;;;;5127382;27;20458;-73
2023/08/11 12:09:34;;;;;;;5.63;3.03;;;;;;;;;;5131119;27;20462;-69
2023/08/11 12:12:03;;;;;;;3.60;2.63;;;;;;;;;;5126940;27;20447;-65
2023/08/11 12:14:31;;;;;;;4.27;2.70;;;;;;;;;;5128397;27;20454;-65
2023/08/11 12:16:58;;;;;;;3.83;2.67;;;;;;;;;;5138552;27;20449;-68
2023/08/11 12:19:24;;;;;;;5.30;2.80;;;;;;;;;;5129148;27;20492;-64
2023/08/11 12:21:51;;;;;;;3.47;2.50;;;;;;;;;;5133494;27;20492;-65
2023/08/11 12:24:17;;;;;;;5.20;2.73;;;;;;;;;;5137092;27;20453;-64
2023/08/11 12:26:43;;;;;;;2.83;2.57;;;;;;;;;;5126366;27;20971;-65
2023/08/11 12:29:10;;;;;;;3.90;2.80;;;;;;;;;;5138351;27;20449;-66
2023/08/11 12:31:38;;;;;;;3.87;2.60;;;;;;;;;;5139947;27;20544;-65
2023/08/11 12:34:04;;;;;;;5.33;2.53;;;;;;;;;;5146898;27;20469;-63
2023/08/11 12:36:30;;;;;;;4.80;3.13;;;;;;;;;;5128092;27;20770;-64
2023/08/11 12:38:57;;;;;;;5.07;2.80;;;;;;;;;;5129725;27;20441;-65
2023/08/11 12:41:23;;;;;;;4.60;2.83;;;;;;;;;;5135543;27;20485;-65
2023/08/11 12:43:50;;;;;;;7.90;3.10;;;;;;;;;;5137756;27;20450;-66
2023/08/11 12:46:16;;;;;;;3.20;2.90;;;;;;;;;;5130533;27;20576;-68
2023/08/11 12:48:44;;;;;;;5.00;2.93;;;;;;;;;;5123693;27;21030;-66
2023/08/11 12:51:10;;;;;;;3.90;3.13;;;;;;;;;;5133194;27;20625;-66
2023/08/11 12:53:37;;;;;;;4.83;3.03;;;;;;;;;;5134477;27;20452;-68
2023/08/11 12:56:04;;;;;;;3.60;2.50;;;;;;;;;;5137185;27;20441;-65
2023/08/11 12:58:30;;;;;;;4.60;3.10;;;;;;;;;;5130456;27;20548;-68
2023/08/11 13:00:57;;;;;;;6.97;2.73;;;;;;;;;;5132807;27;20570;-68
2023/08/11 13:03:24;;;;;;;3.70;3.00;;;;;;;;;;5134027;27;20453;-69
2023/08/11 13:05:51;;;;;;;5.00;3.33;;;;;;;;;;5131267;27;20521;-69
2023/08/11 13:08:18;;;;;;;3.57;3.20;;;;;;;;;;5139692;27;20480;-66
2023/08/11 13:10:44;;;;;;;4.30;3.23;;;;;;;;;;5140127;27;20509;-69
2023/08/11 13:13:10;;;;;;;3.77;2.57;;;;;;;;;;5130036;27;20525;-69
2023/08/11 13:15:37;;;;;;;3.30;2.80;;;;;;;;;;5137377;27;20542;-69
2023/08/11 13:18:04;;;;;;;3.17;2.60;;;;;;;;;;5137714;27;20514;-69
2023/08/11 13:20:30;;;;;;;4.30;2.93;;;;;;;;;;5121524;27;20474;-69
2023/08/11 13:22:58;;;;;;;5.83;3.03;;;;;;;;;;5131458;27;20493;-68
2023/08/11 13:25:24;;;;;;;3.67;2.80;;;;;;;;;;5134482;27;20545;-70
2023/08/11 13:27:51;;;;;;;3.60;3.00;;;;;;;;;;5139089;27;20473;-69
2023/08/11 13:30:19;;;;;;;3.30;2.93;;;;;;;;;;5141858;27;20520;-70
2023/08/11 13:32:46;;;;;;;4.50;3.10;;;;;;;;;;5118373;27;20569;-69
2023/08/11 13:35:12;;;;;;;4.10;2.50;;;;;;;;;;5124413;27;20458;-68
2023/08/11 13:37:39;;;;;;;3.40;2.80;;;;;;;;;;5127660;27;20954;-69
2023/08/11 13:40:08;;;;;;;3.33;2.57;;;;;;;;;;5119917;27;20472;-69
2023/08/11 13:42:35;;;;;;;2.93;2.63;;;;;;;;;;5123886;27;20466;-69
2023/08/11 13:45:01;;;;;;;3.37;2.30;;;;;;;;;;5117261;27;20474;-69
2023/08/11 13:47:27;;;;;;;4.13;2.63;;;;;;;;;;5139087;27;20460;-69
2023/08/11 13:49:54;;;;;;;4.07;2.57;;;;;;;;;;5129905;27;20515;-69
2023/08/11 13:52:20;;;;;;;3.57;2.67;;;;;;;;;;5122650;27;20514;-70
2023/08/11 13:54:56;;;;;;;2.80;2.43;;;;;;;;;;5136676;27;20972;-70
2023/08/11 13:57:24;;;;;;;4.43;2.93;;;;;;;;;;5127582;27;20460;-68
2023/08/11 13:59:50;;;;;;;3.20;2.37;;;;;;;;;;5137287;27;20526;-69
2023/08/11 14:02:17;;;;;;;3.90;2.90;;;;;;;;;;5125833;27;20533;-68
2023/08/11 14:04:43;;;;;;;2.70;2.50;;;;;;;;;;5129883;27;20485;-69
2023/08/11 14:07:09;;;;;;;4.40;2.80;;;;;;;;;;5137335;27;20492;-69
2023/08/11 14:09:36;;;;;;;3.40;2.90;;;;;;;;;;5127685;27;20472;-69
2023/08/11 14:12:02;;;;;;;4.20;2.63;;;;;;;;;;5131004;27;20449;-68
2023/08/11 14:14:30;;;;;;;3.43;2.90;;;;;;;;;;5139414;27;20525;-69
2023/08/11 14:16:56;;;;;;;2.77;2.53;;;;;;;;;;5132229;27;20450;-69
2023/08/11 14:19:23;;;;;;;3.80;2.77;;;;;;;;;;5134147;27;20514;-68
2023/08/11 14:21:49;;;;;;;3.07;2.40;;;;;;;;;;5131832;27;20460;-70
2023/08/11 14:24:17;;;;;;;4.80;2.90;;;;;;;;;;5128178;27;20473;-69
2023/08/11 14:26:43;;;;;;;4.33;2.43;;;;;;;;;;5136628;27;20520;-69
2023/08/11 14:29:10;;;;;;;3.77;3.20;;;;;;;;;;5130424;27;20468;-69
2023/08/11 14:31:37;;;;;;;3.30;3.00;;;;;;;;;;5124973;27;20481;-68
2023/08/11 14:34:04;;;;;;;2.83;2.40;;;;;;;;;;5134521;27;20555;-68
2023/08/11 14:36:31;;;;;;;3.60;2.70;;;;;;;;;;5131143;27;20449;-69
2023/08/11 14:38:57;;;;;;;3.57;2.50;;;;;;;;;;5129205;27;20850;-69
2023/08/11 14:41:24;;;;;;;5.10;2.73;;;;;;;;;;5120691;27;20453;-69